Stanford in the Vale, United Kingdom
Current Conditions -  °F | °C
As of 2:50 AM on Tuesday 21 Oct 2014 (Local Time) from EGVN Reporting Station
Overcast Overcast  
Wind Chill: 55°   Ceiling: 4000
Heat Index: 55°   Visibility: 6mi
Dew Point: 48°   Wind: 15mph
Humidity: 77%   Direction: 210°SSW
Pressure: 29.68"   Gusts: NA
Location:  51.64°N, 1.51°W
Report Text: EGVN 210150Z 21013KT 9999 SCT020 OVC040 13/09 Q1005 WHT TEMPO 4000 RA SCT012 GRN
Loading
Personal Weather Stations






























Interactive Weather Map
Tropical Storm Tracking
New forecast layout! Learn more

10-Day Weather Forecast

Advertisements
Track Severe Weather on mobile